Time;durP1;ratioP1;P1;durP2;ratioP2;P2;SDS_P1;SDS_P2;PMS_P1;PMS_P2;Temp;Humidity;BMP_temperature;BMP_pressure;BME280_temperature;BME280_humidity;BME280_pressure;Samples;Min_cycle;Max_cycle;Signal;HPM_P1;HPM_P2
2022/04/02 00:02:20;;;;;;;;;;;20.90;29.60;;;;;;5038329;28;19966;-60
2022/04/02 00:04:46;;;;;;;;;;;20.90;29.50;;;;;;5038006;28;19912;-59
2022/04/02 00:07:11;;;;;;;;;;;20.90;29.60;;;;;;5065978;28;19920;-59
2022/04/02 00:09:37;;;;;;;;;;;20.90;29.70;;;;;;5051037;28;19913;-59
2022/04/02 00:12:02;;;;;;;;;;;20.80;29.60;;;;;;5072689;28;20022;-60
2022/04/02 00:14:29;;;;;;;;;;;20.80;29.50;;;;;;5072682;28;19919;-60
2022/04/02 00:16:55;;;;;;;;;;;20.90;29.70;;;;;;5054985;28;19912;-60
2022/04/02 00:19:20;;;;;;;;;;;20.80;29.60;;;;;;5072482;28;19913;-59
2022/04/02 00:21:46;;;;;;;;;;;20.80;29.70;;;;;;5075036;28;20313;-60
2022/04/02 00:24:11;;;;;;;;;;;20.80;29.80;;;;;;5069814;28;20394;-60
2022/04/02 00:26:37;;;;;;;;;;;20.80;29.70;;;;;;5066026;28;19917;-59
2022/04/02 00:29:05;;;;;;;;;;;20.80;29.70;;;;;;5037699;28;19987;-60
2022/04/02 00:31:31;;;;;;;;;;;20.80;29.70;;;;;;5070337;28;19923;-60
2022/04/02 00:33:57;;;;;;;;;;;20.70;29.70;;;;;;5062633;28;20289;-60
2022/04/02 00:36:23;;;;;;;;;;;20.80;29.70;;;;;;5048950;28;20000;-59
2022/04/02 00:38:48;;;;;;;;;;;20.80;29.80;;;;;;5064549;28;19946;-59
2022/04/02 00:41:15;;;;;;;;;;;20.80;29.80;;;;;;5065077;28;19919;-59
2022/04/02 00:43:42;;;;;;;;;;;20.70;29.80;;;;;;5046332;28;19975;-59
2022/04/02 00:46:08;;;;;;;;;;;20.70;29.80;;;;;;5040367;28;19932;-59
2022/04/02 00:48:33;;;;;;;;;;;20.70;29.90;;;;;;5046446;28;19920;-60
2022/04/02 00:51:00;;;;;;;;;;;20.70;29.90;;;;;;5065367;28;19970;-60
2022/04/02 00:53:29;;;;;;;;;;;20.60;29.90;;;;;;5063655;28;19967;-60
2022/04/02 00:55:54;;;;;;;;;;;20.60;29.90;;;;;;5051189;28;19912;-59
2022/04/02 00:58:20;;;;;;;;;;;20.60;30.00;;;;;;5061814;28;20264;-59
2022/04/02 01:00:46;;;;;;;;;;;20.50;30.00;;;;;;5047350;28;19927;-60
2022/04/02 01:03:13;;;;;;;;;;;20.60;30.00;;;;;;5033666;28;19913;-60
2022/04/02 01:05:38;;;;;;;;;;;20.60;30.00;;;;;;5063276;28;20388;-60
2022/04/02 01:08:06;;;;;;;;;;;20.60;30.00;;;;;;5065305;28;19982;-61
2022/04/02 01:10:32;;;;;;;;;;;20.50;30.00;;;;;;5032567;28;19912;-59
2022/04/02 01:12:59;;;;;;;;;;;20.50;30.00;;;;;;5058533;28;20398;-59
2022/04/02 01:15:24;;;;;;;;;;;20.50;30.10;;;;;;5047881;28;19920;-59
2022/04/02 01:17:50;;;;;;;;;;;20.40;30.00;;;;;;5047757;28;20303;-59
2022/04/02 01:20:15;;;;;;;;;;;20.40;30.00;;;;;;5044105;28;19968;-59
2022/04/02 01:22:41;;;;;;;;;;;20.40;30.30;;;;;;5063457;28;19963;-59
2022/04/02 01:25:06;;;;;;;;;;;20.40;30.30;;;;;;5043892;28;19912;-60
2022/04/02 01:27:32;;;;;;;;;;;20.40;30.40;;;;;;5060933;28;19920;-59
2022/04/02 01:29:57;;;;;;;;;;;20.50;30.40;;;;;;5047654;28;19984;-60
2022/04/02 01:32:23;;;;;;;;;;;20.60;30.20;;;;;;5046559;28;20016;-59
2022/04/02 01:34:48;;;;;;;;;;;20.80;30.00;;;;;;5064389;28;19908;-60
2022/04/02 01:37:15;;;;;;;;;;;21.10;29.80;;;;;;5044104;28;19912;-60
2022/04/02 01:39:40;;;;;;;;;;;21.30;29.50;;;;;;5036526;28;19928;-60
2022/04/02 01:42:07;;;;;;;;;;;21.50;29.30;;;;;;5064136;28;19917;-60
2022/04/02 01:44:33;;;;;;;;;;;21.70;29.20;;;;;;5064700;28;19920;-60
2022/04/02 01:46:58;;;;;;;;;;;21.70;29.10;;;;;;5051376;28;20425;-60
2022/04/02 01:49:23;;;;;;;;;;;21.70;29.10;;;;;;5065181;28;20260;-60
2022/04/02 01:51:49;;;;;;;;;;;21.60;29.10;;;;;;5051295;28;19915;-60
2022/04/02 01:54:16;;;;;;;;;;;21.60;29.20;;;;;;5044110;28;19966;-59
2022/04/02 01:56:42;;;;;;;;;;;21.60;29.20;;;;;;5050988;28;19912;-59
2022/04/02 01:59:07;;;;;;;;;;;21.50;29.30;;;;;;5031717;28;19947;-60
2022/04/02 02:01:33;;;;;;;;;;;21.50;29.40;;;;;;5047605;28;19912;-60
2022/04/02 02:03:58;;;;;;;;;;;21.40;29.30;;;;;;5059559;28;20367;-60
2022/04/02 02:06:24;;;;;;;;;;;21.40;29.30;;;;;;5047864;28;19913;-60
2022/04/02 02:08:49;;;;;;;;;;;21.40;29.20;;;;;;5043857;28;19987;-60
2022/04/02 02:11:15;;;;;;;;;;;21.40;29.30;;;;;;5048109;28;20292;-60
2022/04/02 02:13:40;;;;;;;;;;;21.30;29.20;;;;;;5048866;28;19956;-60
2022/04/02 02:16:06;;;;;;;;;;;21.30;29.20;;;;;;5059917;28;19939;-60
2022/04/02 02:18:31;;;;;;;;;;;21.30;29.20;;;;;;5047246;28;19909;-60
2022/04/02 02:20:57;;;;;;;;;;;21.30;29.20;;;;;;5063386;28;19928;-60
2022/04/02 02:23:22;;;;;;;;;;;21.30;29.20;;;;;;5049607;28;20011;-59
2022/04/02 02:25:47;;;;;;;;;;;21.30;29.20;;;;;;5063840;28;19920;-60
2022/04/02 02:28:15;;;;;;;;;;;21.20;29.20;;;;;;5063910;28;20003;-59
2022/04/02 02:30:41;;;;;;;;;;;21.20;29.20;;;;;;5059044;28;19921;-59
2022/04/02 02:35:51;;;;;;;;;;;21.20;29.20;;;;;;5067436;28;19998;-60
2022/04/02 02:38:19;;;;;;;;;;;21.10;29.20;;;;;;5035002;28;19916;-60
2022/04/02 02:40:45;;;;;;;;;;;21.10;29.30;;;;;;5033569;28;19920;-60
2022/04/02 02:43:10;;;;;;;;;;;21.10;29.40;;;;;;5047542;28;19917;-60
2022/04/02 02:45:36;;;;;;;;;;;21.00;29.40;;;;;;5044833;28;19995;-59
2022/04/02 02:48:01;;;;;;;;;;;21.00;29.40;;;;;;5050429;28;19923;-60
2022/04/02 02:50:27;;;;;;;;;;;21.00;29.60;;;;;;5046239;28;20314;-60
2022/04/02 02:52:52;;;;;;;;;;;20.90;29.70;;;;;;5057307;28;20318;-60
2022/04/02 02:55:18;;;;;;;;;;;20.90;29.70;;;;;;5059498;28;19913;-60
2022/04/02 02:57:44;;;;;;;;;;;20.90;29.80;;;;;;5044830;28;19958;-60
2022/04/02 03:00:09;;;;;;;;;;;20.80;29.80;;;;;;5060580;28;19995;-59
2022/04/02 03:02:37;;;;;;;;;;;20.80;29.90;;;;;;5048714;28;19965;-59
2022/04/02 03:05:09;;;;;;;;;;;20.80;29.90;;;;;;5049010;28;20475;-60
2022/04/02 03:07:36;;;;;;;;;;;20.70;29.90;;;;;;5032733;28;19920;-59
2022/04/02 03:10:01;;;;;;;;;;;20.70;29.90;;;;;;5044957;28;19923;-60
2022/04/02 03:12:27;;;;;;;;;;;20.80;29.90;;;;;;5064286;28;20008;-60
2022/04/02 03:14:53;;;;;;;;;;;20.80;29.80;;;;;;5066424;28;20071;-60
2022/04/02 03:17:19;;;;;;;;;;;20.80;29.80;;;;;;5047687;28;20424;-60
2022/04/02 03:19:44;;;;;;;;;;;20.80;29.70;;;;;;5063257;28;19969;-60
2022/04/02 03:22:10;;;;;;;;;;;20.80;29.60;;;;;;5063794;28;19928;-60
2022/04/02 03:24:35;;;;;;;;;;;20.90;29.60;;;;;;5056486;28;19966;-60
2022/04/02 03:27:01;;;;;;;;;;;20.90;29.50;;;;;;5061835;28;19912;-59
2022/04/02 03:29:28;;;;;;;;;;;20.90;29.50;;;;;;5049546;28;19928;-59
2022/04/02 03:31:54;;;;;;;;;;;20.90;30.00;;;;;;5060864;28;19912;-59
2022/04/02 03:34:19;;;;;;;;;;;20.90;29.50;;;;;;5067085;28;19923;-60
2022/04/02 03:36:44;;;;;;;;;;;20.90;29.60;;;;;;5064455;28;19917;-60
2022/04/02 03:39:11;;;;;;;;;;;20.90;29.70;;;;;;5065433;28;19920;-60
2022/04/02 03:41:36;;;;;;;;;;;20.90;29.70;;;;;;5067012;28;19966;-60
2022/04/02 03:44:02;;;;;;;;;;;20.90;29.70;;;;;;5049463;28;19921;-60
2022/04/02 03:49:26;;;;;;;;;;;20.90;29.50;;;;;;5031529;28;19979;-59
2022/04/02 03:51:51;;;;;;;;;;;20.90;29.50;;;;;;5042185;28;20295;-60
2022/04/02 03:54:17;;;;;;;;;;;21.00;29.50;;;;;;5048750;28;19993;-59
2022/04/02 03:56:42;;;;;;;;;;;21.00;29.60;;;;;;5044680;28;20007;-60
2022/04/02 03:59:11;;;;;;;;;;;20.90;29.60;;;;;;5062864;28;19922;-60
2022/04/02 04:01:37;;;;;;;;;;;20.90;29.70;;;;;;5062353;28;19955;-59
2022/04/02 04:04:03;;;;;;;;;;;20.90;29.80;;;;;;5050316;28;19955;-60
2022/04/02 04:06:28;;;;;;;;;;;20.90;29.70;;;;;;5064072;28;20270;-59
2022/04/02 04:08:56;;;;;;;;;;;20.90;29.70;;;;;;5039853;28;20659;-59
2022/04/02 04:11:23;;;;;;;;;;;20.90;29.80;;;;;;5056746;28;19920;-59
2022/04/02 04:13:48;;;;;;;;;;;20.90;29.80;;;;;;5063478;28;19939;-59
2022/04/02 04:16:14;;;;;;;;;;;20.80;29.80;;;;;;5043783;28;20395;-60
2022/04/02 04:18:39;;;;;;;;;;;20.80;29.90;;;;;;5032703;28;19990;-59
2022/04/02 04:21:05;;;;;;;;;;;20.80;29.80;;;;;;5043964;28;19979;-60
2022/04/02 04:23:30;;;;;;;;;;;20.80;29.80;;;;;;5059318;28;19982;-60
2022/04/02 04:25:56;;;;;;;;;;;20.80;29.70;;;;;;5060470;28;20383;-59
2022/04/02 04:28:21;;;;;;;;;;;20.80;29.60;;;;;;5056168;28;19913;-59
2022/04/02 04:30:48;;;;;;;;;;;20.80;29.60;;;;;;5063544;28;20012;-59
2022/04/02 04:33:14;;;;;;;;;;;20.80;29.50;;;;;;5066280;28;19913;-60
2022/04/02 04:35:40;;;;;;;;;;;20.80;29.50;;;;;;5048342;28;19956;-60
2022/04/02 04:38:06;;;;;;;;;;;20.80;29.50;;;;;;5043658;28;19947;-59
2022/04/02 04:40:32;;;;;;;;;;;20.80;29.60;;;;;;5046547;28;19916;-60
2022/04/02 04:42:58;;;;;;;;;;;20.80;29.60;;;;;;5041192;28;19920;-59
2022/04/02 04:45:23;;;;;;;;;;;20.80;29.70;;;;;;5044899;28;19916;-59
2022/04/02 04:47:49;;;;;;;;;;;20.80;29.70;;;;;;5060494;28;20360;-62
2022/04/02 04:50:14;;;;;;;;;;;20.80;29.60;;;;;;5045694;28;19916;-62
2022/04/02 04:52:40;;;;;;;;;;;20.80;29.60;;;;;;5060933;28;20384;-61
2022/04/02 04:55:05;;;;;;;;;;;20.80;29.70;;;;;;5059801;28;19966;-62
2022/04/02 04:57:31;;;;;;;;;;;20.70;29.80;;;;;;5030748;28;20064;-62
2022/04/02 04:59:56;;;;;;;;;;;20.70;29.90;;;;;;5062001;28;20046;-61
2022/04/02 05:02:22;;;;;;;;;;;20.60;29.80;;;;;;5059493;28;19959;-61
2022/04/02 05:04:48;;;;;;;;;;;20.70;29.90;;;;;;5046024;28;19917;-62
2022/04/02 05:07:14;;;;;;;;;;;20.80;29.90;;;;;;5045240;28;19912;-62
2022/04/02 05:09:41;;;;;;;;;;;20.80;29.80;;;;;;5048428;28;20624;-62
2022/04/02 05:12:07;;;;;;;;;;;20.80;29.70;;;;;;5046608;28;20360;-62
2022/04/02 05:14:34;;;;;;;;;;;20.80;29.80;;;;;;5045059;28;19951;-62
2022/04/02 05:16:59;;;;;;;;;;;20.70;29.60;;;;;;5051163;28;19913;-61
2022/04/02 05:19:25;;;;;;;;;;;20.70;29.70;;;;;;5035701;28;20435;-61
2022/04/02 05:21:51;;;;;;;;;;;20.80;29.70;;;;;;5062149;28;19956;-62
2022/04/02 05:24:17;;;;;;;;;;;20.80;29.60;;;;;;5063784;28;19968;-61
2022/04/02 05:26:42;;;;;;;;;;;20.80;29.60;;;;;;5034800;28;19921;-62
2022/04/02 05:29:10;;;;;;;;;;;20.80;29.50;;;;;;5065561;28;19935;-62
2022/04/02 05:31:36;;;;;;;;;;;20.80;29.50;;;;;;5051301;28;19921;-61
2022/04/02 05:34:01;;;;;;;;;;;20.80;29.50;;;;;;5044132;28;19917;-62
2022/04/02 05:36:27;;;;;;;;;;;20.80;29.40;;;;;;5040153;28;19912;-62
2022/04/02 05:38:52;;;;;;;;;;;20.80;29.50;;;;;;5065552;28;19927;-62
2022/04/02 05:41:17;;;;;;;;;;;20.80;29.40;;;;;;5070126;28;19912;-62
2022/04/02 05:43:43;;;;;;;;;;;20.70;29.50;;;;;;5033326;28;19944;-62
2022/04/02 05:46:09;;;;;;;;;;;20.70;29.50;;;;;;5035567;28;19927;-62
2022/04/02 05:48:35;;;;;;;;;;;20.70;29.50;;;;;;5051701;28;19916;-62
2022/04/02 05:51:00;;;;;;;;;;;20.70;29.60;;;;;;5063103;28;20390;-62
2022/04/02 05:53:26;;;;;;;;;;;20.60;29.60;;;;;;5051477;28;19974;-61
2022/04/02 05:55:51;;;;;;;;;;;20.70;29.70;;;;;;5050452;28;19912;-61
2022/04/02 05:58:17;;;;;;;;;;;20.60;29.70;;;;;;5068171;28;19912;-59
2022/04/02 06:00:42;;;;;;;;;;;20.50;29.80;;;;;;5069931;28;19912;-61
2022/04/02 06:03:08;;;;;;;;;;;20.60;29.80;;;;;;5049011;28;19920;-61
2022/04/02 06:05:33;;;;;;;;;;;20.60;29.70;;;;;;5049210;28;19947;-62
2022/04/02 06:07:59;;;;;;;;;;;20.60;29.70;;;;;;5053717;28;20001;-62
2022/04/02 06:10:24;;;;;;;;;;;20.70;29.70;;;;;;5043974;28;20729;-61
2022/04/02 06:12:51;;;;;;;;;;;20.70;29.70;;;;;;5049375;28;20344;-61
2022/04/02 06:15:17;;;;;;;;;;;20.70;29.70;;;;;;5035559;28;19912;-62
2022/04/02 06:17:42;;;;;;;;;;;20.60;29.60;;;;;;5049493;28;19931;-61
2022/04/02 06:20:08;;;;;;;;;;;20.60;29.60;;;;;;5034377;28;20349;-61
2022/04/02 06:22:34;;;;;;;;;;;20.60;29.70;;;;;;5032398;28;19917;-62
2022/04/02 06:25:00;;;;;;;;;;;20.60;29.70;;;;;;5065188;28;19924;-61
2022/04/02 06:27:25;;;;;;;;;;;20.60;29.70;;;;;;5060911;28;20336;-61
2022/04/02 06:29:51;;;;;;;;;;;20.60;29.70;;;;;;5066920;28;20356;-61
2022/04/02 06:32:16;;;;;;;;;;;20.60;29.60;;;;;;5042282;28;19957;-61
2022/04/02 06:34:42;;;;;;;;;;;20.70;29.60;;;;;;5064178;28;20349;-62
2022/04/02 06:37:07;;;;;;;;;;;20.60;29.50;;;;;;5051484;28;19913;-61
2022/04/02 06:39:32;;;;;;;;;;;20.70;29.50;;;;;;5066120;28;19942;-62
2022/04/02 06:41:58;;;;;;;;;;;20.70;29.50;;;;;;5035511;28;19913;-62
2022/04/02 06:44:24;;;;;;;;;;;20.70;29.40;;;;;;5065205;28;19916;-62
2022/04/02 06:46:49;;;;;;;;;;;20.70;29.50;;;;;;5068233;28;19919;-62
2022/04/02 06:49:14;;;;;;;;;;;20.70;29.50;;;;;;5059566;28;20383;-61
2022/04/02 06:51:40;;;;;;;;;;;20.70;29.50;;;;;;5051307;28;19912;-61
2022/04/02 06:54:06;;;;;;;;;;;20.70;29.60;;;;;;5049437;28;19958;-61
2022/04/02 06:56:31;;;;;;;;;;;20.70;29.50;;;;;;5035422;28;19923;-61
2022/04/02 06:58:57;;;;;;;;;;;20.60;29.50;;;;;;5049376;28;20272;-62
2022/04/02 07:01:22;;;;;;;;;;;20.50;29.50;;;;;;5046531;28;19936;-62
2022/04/02 07:03:48;;;;;;;;;;;20.50;29.60;;;;;;5035933;28;20011;-62
2022/04/02 07:06:13;;;;;;;;;;;20.60;29.60;;;;;;5042674;28;19913;-61
2022/04/02 07:08:39;;;;;;;;;;;20.60;29.60;;;;;;5070620;28;19965;-61
2022/04/02 07:11:04;;;;;;;;;;;20.60;29.50;;;;;;5074310;28;19916;-61
2022/04/02 07:13:30;;;;;;;;;;;20.60;29.50;;;;;;5053241;28;19917;-61
2022/04/02 07:15:56;;;;;;;;;;;20.60;29.50;;;;;;5038825;28;19912;-62
2022/04/02 07:18:21;;;;;;;;;;;20.60;29.50;;;;;;5057454;28;19927;-61
2022/04/02 07:20:47;;;;;;;;;;;20.50;29.50;;;;;;5070298;28;19935;-61
2022/04/02 07:23:13;;;;;;;;;;;20.50;29.50;;;;;;5055394;28;20004;-61
2022/04/02 07:25:39;;;;;;;;;;;20.50;29.50;;;;;;5068938;28;20018;-61
2022/04/02 07:28:04;;;;;;;;;;;20.60;29.60;;;;;;5052943;28;19961;-61
2022/04/02 07:30:31;;;;;;;;;;;20.60;29.60;;;;;;5016523;28;19928;-61
2022/04/02 07:32:56;;;;;;;;;;;20.60;29.60;;;;;;5031146;28;19971;-61
2022/04/02 07:35:22;;;;;;;;;;;20.60;29.60;;;;;;5023415;28;19964;-61
2022/04/02 07:38:02;;;;;;;;;;;20.50;29.50;;;;;;5027340;28;20014;-61
2022/04/02 07:40:34;;;;;;;;;;;20.60;29.60;;;;;;5039258;28;19983;-61
2022/04/02 07:43:02;;;;;;;;;;;20.60;29.60;;;;;;5023553;28;19913;-62
2022/04/02 07:45:30;;;;;;;;;;;20.60;29.50;;;;;;5015021;28;20016;-62
2022/04/02 07:47:56;;;;;;;;;;;20.50;29.50;;;;;;5031313;28;19917;-61
2022/04/02 07:50:22;;;;;;;;;;;20.50;29.60;;;;;;5021975;28;19939;-61
2022/04/02 07:52:49;;;;;;;;;;;20.50;29.60;;;;;;5028463;28;19916;-61
2022/04/02 07:55:15;;;;;;;;;;;20.50;29.60;;;;;;5031641;28;19917;-61
2022/04/02 07:57:42;;;;;;;;;;;20.40;29.70;;;;;;5051639;28;19917;-61
2022/04/02 08:00:10;;;;;;;;;;;20.40;29.70;;;;;;5027896;28;19955;-62
2022/04/02 08:02:36;;;;;;;;;;;20.40;29.70;;;;;;5027584;28;19939;-61
2022/04/02 08:05:05;;;;;;;;;;;20.40;29.80;;;;;;5026337;28;19967;-61
2022/04/02 08:07:31;;;;;;;;;;;20.40;29.70;;;;;;5014675;28;20023;-61
2022/04/02 08:09:57;;;;;;;;;;;20.40;29.70;;;;;;5020734;28;19944;-62
2022/04/02 08:12:23;;;;;;;;;;;20.40;29.70;;;;;;5010770;28;20349;-61
2022/04/02 08:14:49;;;;;;;;;;;20.40;29.70;;;;;;5027798;28;19944;-61
2022/04/02 08:17:15;;;;;;;;;;;20.40;29.70;;;;;;5037489;28;19917;-61
2022/04/02 08:19:40;;;;;;;;;;;20.40;29.70;;;;;;5023941;28;19917;-61
2022/04/02 08:22:05;;;;;;;;;;;20.40;29.60;;;;;;5056943;28;19924;-61
2022/04/02 08:24:31;;;;;;;;;;;20.40;29.70;;;;;;5067225;28;19974;-61
2022/04/02 08:27:02;;;;;;;;;;;20.50;29.80;;;;;;5048580;28;21321;-61
2022/04/02 08:29:47;;;;;;;;;;;20.50;29.80;;;;;;5042174;28;19920;-61
2022/04/02 08:32:35;;;;;;;;;;;20.60;29.70;;;;;;5069312;28;20275;-61
2022/04/02 08:35:10;;;;;;;;;;;20.60;29.80;;;;;;5035667;28;20253;-61
2022/04/02 08:37:42;;;;;;;;;;;20.90;29.60;;;;;;5063063;28;19932;-62
2022/04/02 08:40:11;;;;;;;;;;;21.30;29.30;;;;;;5062996;28;20380;-61
2022/04/02 08:42:40;;;;;;;;;;;21.70;29.10;;;;;;5073317;28;20004;-61
2022/04/02 08:45:07;;;;;;;;;;;22.00;28.70;;;;;;5071351;28;20296;-61
2022/04/02 08:47:36;;;;;;;;;;;22.20;28.50;;;;;;5033711;28;19920;-62
2022/04/02 08:50:10;;;;;;;;;;;22.20;28.40;;;;;;5068610;28;19916;-62
2022/04/02 08:52:47;;;;;;;;;;;22.20;28.40;;;;;;5032981;28;19978;-61
2022/04/02 08:55:14;;;;;;;;;;;22.30;28.20;;;;;;5054434;28;19916;-61
2022/04/02 08:57:39;;;;;;;;;;;22.50;28.20;;;;;;5049215;28;20639;-62
2022/04/02 09:00:08;;;;;;;;;;;22.60;28.10;;;;;;5058837;28;19916;-59
2022/04/02 09:02:52;;;;;;;;;;;22.70;27.90;;;;;;5048625;28;19912;-59
2022/04/02 09:05:34;;;;;;;;;;;22.80;27.80;;;;;;5069810;28;20367;-59
2022/04/02 09:08:05;;;;;;;;;;;22.90;27.80;;;;;;5052408;28;19916;-61
2022/04/02 09:10:46;;;;;;;;;;;23.00;27.90;;;;;;5053681;28;19913;-62
2022/04/02 09:13:18;;;;;;;;;;;23.00;27.90;;;;;;5069439;28;19917;-62
2022/04/02 09:16:04;;;;;;;;;;;23.10;27.90;;;;;;5053546;28;20395;-62
2022/04/02 09:18:33;;;;;;;;;;;23.00;27.80;;;;;;5047748;28;20016;-62
2022/04/02 09:21:04;;;;;;;;;;;23.00;28.00;;;;;;5063742;28;20003;-61
2022/04/02 09:23:45;;;;;;;;;;;22.90;28.10;;;;;;5043637;28;19939;-61
2022/04/02 09:26:31;;;;;;;;;;;22.80;28.20;;;;;;5046105;28;19924;-61
2022/04/02 09:29:05;;;;;;;;;;;22.60;28.50;;;;;;5045452;28;20008;-62
2022/04/02 09:31:49;;;;;;;;;;;22.50;28.70;;;;;;5062052;28;20414;-62
2022/04/02 09:34:18;;;;;;;;;;;22.40;29.00;;;;;;5064684;28;19956;-62
2022/04/02 09:36:59;;;;;;;;;;;22.30;29.20;;;;;;5059206;28;19924;-62
2022/04/02 09:39:40;;;;;;;;;;;22.20;29.30;;;;;;5031128;28;19912;-61
2022/04/02 09:42:18;;;;;;;;;;;22.20;29.30;;;;;;5058560;28;20664;-62
2022/04/02 09:45:03;;;;;;;;;;;22.20;29.40;;;;;;5045285;28;19928;-62
2022/04/02 09:47:47;;;;;;;;;;;22.30;29.40;;;;;;5046730;28;19913;-62
2022/04/02 09:50:13;;;;;;;;;;;22.30;29.30;;;;;;5056418;28;20295;-62
2022/04/02 09:52:46;;;;;;;;;;;22.40;29.40;;;;;;5057284;28;19962;-61
2022/04/02 09:55:12;;;;;;;;;;;22.40;29.30;;;;;;5042891;28;20023;-62
2022/04/02 09:57:38;;;;;;;;;;;22.40;29.20;;;;;;5048680;28;20385;-61
2022/04/02 10:00:04;;;;;;;;;;;22.50;29.30;;;;;;5060463;28;19965;-62
2022/04/02 10:02:34;;;;;;;;;;;22.50;29.20;;;;;;5048891;28;19913;-62
2022/04/02 10:05:03;;;;;;;;;;;22.50;29.20;;;;;;5034597;28;19920;-62
2022/04/02 10:07:40;;;;;;;;;;;22.50;29.20;;;;;;5044958;28;19913;-62
2022/04/02 10:10:05;;;;;;;;;;;22.50;29.30;;;;;;5037714;28;20296;-61
2022/04/02 10:12:33;;;;;;;;;;;22.50;29.40;;;;;;5073068;28;19912;-61
2022/04/02 10:14:59;;;;;;;;;;;22.40;29.50;;;;;;5054978;28;19974;-62
2022/04/02 10:17:28;;;;;;;;;;;22.30;29.40;;;;;;5043286;28;20398;-61
2022/04/02 10:19:55;;;;;;;;;;;22.30;29.60;;;;;;5051275;28;19970;-61
2022/04/02 10:22:20;;;;;;;;;;;22.30;29.70;;;;;;5043794;28;19931;-61
2022/04/02 10:24:47;;;;;;;;;;;22.30;29.60;;;;;;5060306;28;19961;-61
2022/04/02 10:27:13;;;;;;;;;;;22.40;29.70;;;;;;5040965;28;19923;-61
2022/04/02 10:29:39;;;;;;;;;;;22.40;29.60;;;;;;5037212;28;20534;-61
2022/04/02 10:32:07;;;;;;;;;;;22.50;29.60;;;;;;5055126;28;19999;-61
2022/04/02 10:34:38;;;;;;;;;;;22.60;29.50;;;;;;5069522;28;19916;-61
2022/04/02 10:37:10;;;;;;;;;;;22.70;29.50;;;;;;5076131;28;19919;-58
2022/04/02 10:39:38;;;;;;;;;;;22.70;29.40;;;;;;5062088;28;19919;-58
2022/04/02 10:42:05;;;;;;;;;;;22.80;29.40;;;;;;5037021;28;19909;-58
2022/04/02 10:44:32;;;;;;;;;;;22.80;29.30;;;;;;5035889;28;19920;-58
2022/04/02 10:46:58;;;;;;;;;;;22.80;29.30;;;;;;5090514;28;19919;-58
2022/04/02 10:49:26;;;;;;;;;;;22.80;29.30;;;;;;5076683;28;19912;-59
2022/04/02 10:51:52;;;;;;;;;;;22.80;29.40;;;;;;5055491;28;19912;-61
2022/04/02 10:54:19;;;;;;;;;;;22.80;29.40;;;;;;5036402;28;19956;-61
2022/04/02 10:56:45;;;;;;;;;;;22.90;29.50;;;;;;5051434;28;20435;-61
2022/04/02 10:59:11;;;;;;;;;;;22.70;29.40;;;;;;5051300;28;20371;-61
2022/04/02 11:01:41;;;;;;;;;;;22.70;29.40;;;;;;5073945;28;19912;-61
2022/04/02 11:04:26;;;;;;;;;;;22.60;29.40;;;;;;5072338;28;20320;-61
2022/04/02 11:06:51;;;;;;;;;;;22.50;29.60;;;;;;5052988;28;20319;-61
2022/04/02 11:09:31;;;;;;;;;;;22.40;29.70;;;;;;5045802;28;19913;-61
2022/04/02 11:11:57;;;;;;;;;;;22.20;29.80;;;;;;5065464;28;20319;-61
2022/04/02 11:14:22;;;;;;;;;;;22.20;29.80;;;;;;5060658;28;19977;-61
2022/04/02 11:16:48;;;;;;;;;;;22.20;29.90;;;;;;5048081;28;19921;-59
2022/04/02 11:22:02;;;;;;;;;;;22.10;29.80;;;;;;5050160;28;20343;-59
2022/04/02 11:24:28;;;;;;;;;;;22.00;29.60;;;;;;5062361;28;20291;-61
2022/04/02 11:26:54;;;;;;;;;;;22.00;29.70;;;;;;5045180;28;19935;-59
2022/04/02 11:29:19;;;;;;;;;;;21.90;29.60;;;;;;5046907;28;19913;-59
2022/04/02 11:31:45;;;;;;;;;;;21.90;29.50;;;;;;5044615;28;19916;-59
2022/04/02 11:34:10;;;;;;;;;;;21.80;29.50;;;;;;5056596;28;19947;-59
2022/04/02 11:36:43;;;;;;;;;;;21.80;29.10;;;;;;5031183;28;20007;-59
2022/04/02 11:39:11;;;;;;;;;;;21.80;29.10;;;;;;5056606;28;20669;-58
2022/04/02 11:41:43;;;;;;;;;;;21.70;29.30;;;;;;5048001;28;19918;-58
2022/04/02 11:44:09;;;;;;;;;;;21.60;29.30;;;;;;5056521;28;19993;-58
2022/04/02 11:46:53;;;;;;;;;;;21.50;29.40;;;;;;5045157;28;20341;-59
2022/04/02 11:49:24;;;;;;;;;;;21.50;29.40;;;;;;5063079;28;21719;-59
2022/04/02 11:52:03;;;;;;;;;;;21.40;29.30;;;;;;5045673;28;19920;-59
2022/04/02 11:54:28;;;;;;;;;;;21.40;29.40;;;;;;5044674;28;20352;-59
2022/04/02 11:57:05;;;;;;;;;;;21.40;29.30;;;;;;5029714;28;19912;-59
2022/04/02 11:59:30;;;;;;;;;;;21.40;29.50;;;;;;5060107;28;19994;-59
2022/04/02 12:01:56;;;;;;;;;;;21.40;29.40;;;;;;5044178;28;19913;-59
2022/04/02 12:04:25;;;;;;;;;;;21.30;29.30;;;;;;5044487;28;20033;-59
2022/04/02 12:06:52;;;;;;;;;;;21.30;29.30;;;;;;5063288;28;19955;-61
2022/04/02 12:09:18;;;;;;;;;;;21.30;29.30;;;;;;5026051;28;19917;-61
2022/04/02 12:11:51;;;;;;;;;;;21.30;29.30;;;;;;5031546;28;19969;-61
2022/04/02 12:14:29;;;;;;;;;;;21.40;29.30;;;;;;5046199;28;19951;-59
2022/04/02 12:17:13;;;;;;;;;;;21.30;29.30;;;;;;5044029;28;20521;-59
2022/04/02 12:19:59;;;;;;;;;;;21.40;29.30;;;;;;5046409;28;19951;-59
2022/04/02 12:22:30;;;;;;;;;;;21.40;29.30;;;;;;5061195;28;19921;-59
2022/04/02 12:24:59;;;;;;;;;;;21.40;29.30;;;;;;5045313;28;19920;-58
2022/04/02 12:27:26;;;;;;;;;;;21.40;29.30;;;;;;5047697;28;19920;-59
2022/04/02 12:29:52;;;;;;;;;;;21.30;29.20;;;;;;5045924;28;19920;-61
2022/04/02 12:32:37;;;;;;;;;;;21.30;29.20;;;;;;5062934;28;20974;-59
2022/04/02 12:35:04;;;;;;;;;;;21.30;29.80;;;;;;5060942;28;19919;-59
2022/04/02 12:37:30;;;;;;;;;;;21.20;29.30;;;;;;5046977;28;19919;-59
2022/04/02 12:39:56;;;;;;;;;;;21.30;29.50;;;;;;5043949;28;19920;-59
2022/04/02 12:42:38;;;;;;;;;;;21.30;29.40;;;;;;5063433;28;19918;-59
2022/04/02 12:45:04;;;;;;;;;;;21.30;29.30;;;;;;5061082;28;19963;-59
2022/04/02 12:47:30;;;;;;;;;;;21.30;29.30;;;;;;5045572;28;19919;-59
2022/04/02 12:49:56;;;;;;;;;;;21.30;29.40;;;;;;5044728;28;19920;-59
2022/04/02 12:52:21;;;;;;;;;;;21.40;29.30;;;;;;5044422;28;20002;-59
2022/04/02 12:54:50;;;;;;;;;;;21.40;29.20;;;;;;5042659;28;19916;-59
2022/04/02 12:57:16;;;;;;;;;;;21.30;29.20;;;;;;5029512;28;19952;-59
2022/04/02 12:59:50;;;;;;;;;;;21.30;29.20;;;;;;5044240;28;19967;-59
2022/04/02 13:02:19;;;;;;;;;;;21.30;29.30;;;;;;5045470;28;19935;-59
2022/04/02 13:04:48;;;;;;;;;;;21.30;29.20;;;;;;5043289;28;19924;-59
2022/04/02 13:07:14;;;;;;;;;;;21.30;29.20;;;;;;5061104;28;20007;-59
2022/04/02 13:09:40;;;;;;;;;;;21.30;29.20;;;;;;5041297;28;20360;-59
2022/04/02 13:12:06;;;;;;;;;;;21.30;29.20;;;;;;5046191;28;20315;-59
2022/04/02 13:14:34;;;;;;;;;;;21.40;29.00;;;;;;5044824;28;19927;-59
2022/04/02 13:17:07;;;;;;;;;;;21.40;28.90;;;;;;5045474;28;19920;-59
2022/04/02 13:22:44;;;;;;;;;;;21.30;29.10;;;;;;5056782;28;20284;-59
2022/04/02 13:25:16;;;;;;;;;;;21.30;29.10;;;;;;5043867;28;20372;-59
2022/04/02 13:27:52;;;;;;;;;;;21.30;29.20;;;;;;5042781;28;20747;-59
2022/04/02 13:30:17;;;;;;;;;;;21.20;29.20;;;;;;5061095;28;19965;-59
2022/04/02 13:32:46;;;;;;;;;;;21.20;29.10;;;;;;5062054;28;19963;-59
2022/04/02 13:35:17;;;;;;;;;;;21.20;29.20;;;;;;5042874;28;20296;-59
2022/04/02 13:37:42;;;;;;;;;;;21.10;29.10;;;;;;5062871;28;19921;-59
2022/04/02 13:40:08;;;;;;;;;;;21.10;29.10;;;;;;5047480;28;19909;-59
2022/04/02 13:42:34;;;;;;;;;;;21.10;29.70;;;;;;5050135;28;19920;-59
2022/04/02 13:45:00;;;;;;;;;;;21.10;29.20;;;;;;5032777;28;20411;-61
2022/04/02 13:47:25;;;;;;;;;;;21.10;29.20;;;;;;5030229;28;19917;-59
2022/04/02 13:49:54;;;;;;;;;;;21.10;29.10;;;;;;5048424;28;20372;-61
2022/04/02 13:52:20;;;;;;;;;;;21.10;29.10;;;;;;5060461;28;19921;-59
2022/04/02 13:54:52;;;;;;;;;;;21.10;29.10;;;;;;5066057;28;19919;-58
2022/04/02 13:57:18;;;;;;;;;;;21.10;29.10;;;;;;5064123;28;19995;-59
2022/04/02 13:59:59;;;;;;;;;;;21.10;29.40;;;;;;5047617;28;19920;-60
2022/04/02 14:02:28;;;;;;;;;;;21.10;29.10;;;;;;5064281;28;19967;-59
2022/04/02 14:05:12;;;;;;;;;;;21.10;29.20;;;;;;5048710;28;19913;-59
2022/04/02 14:07:40;;;;;;;;;;;21.10;29.20;;;;;;5066045;28;19935;-58
2022/04/02 14:10:11;;;;;;;;;;;21.10;29.10;;;;;;5046036;28;19913;-59
2022/04/02 14:12:37;;;;;;;;;;;21.20;29.20;;;;;;5033200;28;19913;-59
2022/04/02 14:15:06;;;;;;;;;;;21.10;29.00;;;;;;5047048;28;19916;-61
2022/04/02 14:17:32;;;;;;;;;;;21.10;29.10;;;;;;5047239;28;20342;-59
2022/04/02 14:20:07;;;;;;;;;;;21.10;29.10;;;;;;5060095;28;20016;-59
2022/04/02 14:22:51;;;;;;;;;;;21.10;29.00;;;;;;5047590;28;19925;-59
2022/04/02 14:25:28;;;;;;;;;;;21.10;29.00;;;;;;5064724;28;20372;-59
2022/04/02 14:28:17;;;;;;;;;;;21.10;28.90;;;;;;5063203;28;20256;-59
2022/04/02 14:30:55;;;;;;;;;;;21.10;29.10;;;;;;5053893;28;19952;-59
2022/04/02 14:33:35;;;;;;;;;;;21.10;29.10;;;;;;5049255;28;19954;-59